Time;durP1;ratioP1;P1;durP2;ratioP2;P2;SDS_P1;SDS_P2;PMS_P1;PMS_P2;Temp;Humidity;BMP_temperature;BMP_pressure;BME280_temperature;BME280_humidity;BME280_pressure;Samples;Min_cycle;Max_cycle;Signal;HPM_P1;HPM_P2
2022/05/16 00:02:21;;;;;;;12.82;6.70;;;13.20;99.90;;;;;;5002675;28;20073;-74
2022/05/16 00:04:49;;;;;;;10.65;6.28;;;13.20;99.90;;;;;;5007720;28;20520;-75
2022/05/16 00:07:17;;;;;;;12.25;6.95;;;13.10;99.90;;;;;;5006592;28;20101;-75
2022/05/16 00:09:46;;;;;;;14.75;7.15;;;13.20;99.90;;;;;;5020945;28;20828;-75
2022/05/16 00:12:14;;;;;;;13.75;6.93;;;13.10;99.90;;;;;;5022013;28;20108;-75
2022/05/16 00:14:42;;;;;;;12.20;6.75;;;13.10;99.90;;;;;;5007092;28;20044;-75
2022/05/16 00:17:08;;;;;;;11.85;6.63;;;13.10;99.90;;;;;;5023353;28;20045;-75
2022/05/16 00:19:34;;;;;;;14.23;6.85;;;13.00;99.90;;;;;;5005595;28;20514;-75
2022/05/16 00:22:00;;;;;;;13.23;7.15;;;13.00;99.90;;;;;;5019969;28;20421;-73
2022/05/16 00:24:28;;;;;;;13.00;7.57;;;13.00;99.90;;;;;;5004323;28;20511;-74
2022/05/16 00:26:55;;;;;;;12.85;6.65;;;13.00;99.90;;;;;;5022729;28;20778;-74
2022/05/16 00:29:21;;;;;;;11.98;6.85;;;13.00;99.90;;;;;;5023103;28;20045;-74
2022/05/16 00:31:47;;;;;;;12.98;6.55;;;13.00;99.90;;;;;;5023783;28;20112;-74
2022/05/16 00:34:17;;;;;;;12.82;6.47;;;12.90;99.90;;;;;;5023688;28;20095;-74
2022/05/16 00:36:47;;;;;;;12.18;6.43;;;12.90;99.90;;;;;;5007666;28;20134;-74
2022/05/16 00:39:17;;;;;;;10.93;6.28;;;12.90;99.90;;;;;;5023601;28;20048;-74
2022/05/16 00:41:43;;;;;;;;;;;12.90;99.90;;;;;;5021852;28;20102;-75
2022/05/16 00:44:10;;;;;;;12.90;6.47;;;12.90;99.90;;;;;;5004843;28;20383;-73
2022/05/16 00:46:36;;;;;;;12.73;6.57;;;12.90;99.90;;;;;;5005930;28;20499;-73
2022/05/16 00:49:11;;;;;;;9.68;6.20;;;12.90;99.90;;;;;;5006732;28;20033;-73
2022/05/16 00:51:58;;;;;;;11.32;6.90;;;12.90;99.90;;;;;;5022884;28;20084;-75
2022/05/16 00:54:31;;;;;;;11.45;6.10;;;12.90;99.90;;;;;;5019971;28;20132;-74
2022/05/16 00:57:02;;;;;;;11.25;5.60;;;12.90;99.90;;;;;;5020813;28;20056;-74
2022/05/16 00:59:32;;;;;;;;;;;13.00;99.90;;;;;;5006439;28;20626;-74
2022/05/16 01:04:48;;;;;;;10.55;5.57;;;13.10;99.90;;;;;;5023023;28;20049;-74
2022/05/16 01:07:38;;;;;;;9.23;4.93;;;13.20;99.90;;;;;;5006305;28;20492;-74
2022/05/16 01:10:06;;;;;;;12.10;5.55;;;13.20;99.90;;;;;;5022121;28;20799;-73
2022/05/16 01:12:35;;;;;;;9.15;5.30;;;13.30;99.90;;;;;;5024755;28;20056;-74
2022/05/16 01:15:06;;;;;;;9.60;5.30;;;13.40;99.90;;;;;;5022742;28;20045;-74
2022/05/16 01:17:33;;;;;;;10.10;5.22;;;13.40;99.90;;;;;;5027545;28;20053;-74
2022/05/16 01:19:59;;;;;;;8.48;4.88;;;13.50;99.90;;;;;;5007353;28;20125;-74
2022/05/16 01:22:32;;;;;;;8.65;4.47;;;13.40;99.90;;;;;;5005958;28;20926;-74
2022/05/16 01:25:18;;;;;;;7.60;4.45;;;13.50;99.90;;;;;;5025732;28;20127;-73
2022/05/16 01:27:49;;;;;;;10.93;4.90;;;13.50;99.90;;;;;;5027090;28;20068;-74
2022/05/16 01:30:24;;;;;;;10.23;4.70;;;13.40;99.90;;;;;;5009945;28;20045;-74
2022/05/16 01:32:50;;;;;;;9.10;4.80;;;13.40;99.90;;;;;;5009996;28;20041;-74
2022/05/16 01:35:22;;;;;;;9.13;5.45;;;13.40;99.90;;;;;;5009736;28;20037;-75
2022/05/16 01:40:33;;;;;;;11.90;4.88;;;13.30;99.90;;;;;;5026606;28;20052;-75
2022/05/16 01:42:59;;;;;;;7.75;4.55;;;13.20;99.90;;;;;;5026376;28;20045;-75
2022/05/16 01:45:25;;;;;;;10.20;5.18;;;13.20;99.90;;;;;;5007976;28;20045;-75
2022/05/16 01:47:50;;;;;;;9.45;4.50;;;13.20;99.90;;;;;;5008424;28;20046;-75
2022/05/16 01:50:17;;;;;;;9.23;5.03;;;13.20;99.90;;;;;;5022933;28;20503;-74
2022/05/16 01:52:42;;;;;;;9.50;4.50;;;13.10;99.90;;;;;;5026117;28;20038;-74
2022/05/16 01:55:11;;;;;;;13.65;4.60;;;13.10;99.90;;;;;;5008190;28;20078;-74
2022/05/16 01:57:40;;;;;;;9.48;4.97;;;13.20;99.90;;;;;;5026092;28;20045;-75
2022/05/16 02:00:09;;;;;;;9.52;4.57;;;13.20;99.90;;;;;;5025614;28;20295;-74
2022/05/16 02:02:37;;;;;;;9.95;4.50;;;13.10;99.90;;;;;;5010821;28;20049;-75
2022/05/16 02:05:03;;;;;;;8.77;4.00;;;13.20;99.90;;;;;;5008105;28;20184;-74
2022/05/16 02:07:28;;;;;;;9.77;4.50;;;13.20;99.90;;;;;;5026768;28;20077;-76
2022/05/16 02:09:54;;;;;;;9.93;5.18;;;13.20;99.90;;;;;;4994145;28;20095;-74
2022/05/16 02:12:20;;;;;;;10.00;4.97;;;13.20;99.90;;;;;;5026139;28;20049;-74
2022/05/16 02:14:46;;;;;;;8.35;4.65;;;13.30;99.90;;;;;;4994264;28;20041;-74
2022/05/16 02:17:12;;;;;;;10.18;5.30;;;13.30;99.90;;;;;;5027296;28;20578;-74
2022/05/16 02:19:38;;;;;;;9.13;4.35;;;13.30;99.90;;;;;;4994753;28;20392;-73
2022/05/16 02:24:48;;;;;;;9.05;4.55;;;13.30;99.90;;;;;;5017775;28;20057;-74
2022/05/16 02:27:19;;;;;;;10.95;5.88;;;13.30;99.90;;;;;;5009925;28;20053;-74
2022/05/16 02:29:45;;;;;;;8.48;4.72;;;13.30;99.90;;;;;;5026291;28;20455;-73
2022/05/16 02:32:12;;;;;;;12.73;5.00;;;13.30;99.90;;;;;;5026811;28;20088;-74
2022/05/16 02:34:38;;;;;;;9.15;4.68;;;13.20;99.90;;;;;;5026419;28;20044;-74
2022/05/16 02:37:05;;;;;;;9.63;4.60;;;13.20;99.90;;;;;;5026572;28;20046;-74
2022/05/16 02:39:31;;;;;;;8.88;4.47;;;13.10;99.90;;;;;;4993411;28;20728;-74
2022/05/16 02:41:57;;;;;;;8.27;3.90;;;13.10;99.90;;;;;;5018574;28;20057;-74
2022/05/16 02:44:23;;;;;;;11.90;4.50;;;13.10;99.90;;;;;;5009581;28;20259;-74
2022/05/16 02:46:49;;;;;;;9.30;4.72;;;13.10;99.90;;;;;;5018930;28;20140;-74
2022/05/16 02:49:15;;;;;;;9.63;5.15;;;13.10;99.90;;;;;;5026409;28;20164;-74
2022/05/16 02:51:41;;;;;;;8.43;4.50;;;13.10;99.90;;;;;;5026054;28;20049;-74
2022/05/16 02:54:07;;;;;;;8.45;4.28;;;13.00;99.90;;;;;;5026602;28;20103;-74
2022/05/16 02:56:33;;;;;;;8.52;4.63;;;13.00;99.90;;;;;;5008397;28;20439;-74
2022/05/16 02:58:58;;;;;;;8.30;4.35;;;13.00;99.90;;;;;;5009763;28;20064;-74
2022/05/16 03:01:25;;;;;;;8.43;4.07;;;13.00;99.90;;;;;;5005215;28;20041;-74
2022/05/16 03:03:50;;;;;;;10.68;4.82;;;13.00;99.90;;;;;;5006803;28;20052;-73
2022/05/16 03:06:17;;;;;;;8.30;4.30;;;12.90;99.90;;;;;;4990484;28;20050;-73
2022/05/16 03:08:46;;;;;;;9.57;3.92;;;13.00;99.90;;;;;;4990242;28;20132;-73
2022/05/16 03:11:12;;;;;;;7.03;4.40;;;12.90;99.90;;;;;;5006041;28;20526;-74
2022/05/16 03:13:37;;;;;;;8.98;4.03;;;12.90;99.90;;;;;;5005675;28;20058;-74
2022/05/16 03:16:04;;;;;;;8.05;4.50;;;12.90;99.90;;;;;;4990822;28;20604;-73
2022/05/16 03:18:31;;;;;;;7.88;3.83;;;12.90;99.90;;;;;;5025682;28;20045;-74
2022/05/16 03:20:57;;;;;;;8.45;3.70;;;12.90;99.90;;;;;;5025695;28;20045;-74
2022/05/16 03:23:24;;;;;;;8.23;4.05;;;12.90;99.90;;;;;;5025382;28;20546;-74
2022/05/16 03:25:50;;;;;;;7.70;4.22;;;12.80;99.90;;;;;;5024671;28;20618;-74
2022/05/16 03:28:16;;;;;;;8.88;4.07;;;12.80;99.90;;;;;;4997708;28;20403;-75
2022/05/16 03:30:42;;;;;;;9.23;4.00;;;12.80;99.90;;;;;;5009328;28;20049;-73
2022/05/16 03:33:09;;;;;;;7.45;4.10;;;12.80;99.90;;;;;;5008632;28;20111;-73
2022/05/16 03:35:35;;;;;;;8.48;3.88;;;12.80;99.90;;;;;;5019637;28;20125;-73
2022/05/16 03:38:02;;;;;;;7.13;3.65;;;12.70;99.90;;;;;;5021986;28;20053;-73
2022/05/16 03:40:42;;;;;;;9.10;3.88;;;12.80;99.90;;;;;;5005198;28;20060;-73
2022/05/16 03:43:10;;;;;;;9.05;4.13;;;12.80;99.90;;;;;;5005896;28;20539;-73
2022/05/16 03:45:37;;;;;;;8.98;3.72;;;12.70;99.90;;;;;;5005667;28;20122;-73
2022/05/16 03:48:04;;;;;;;8.35;4.10;;;12.70;99.90;;;;;;5005987;28;20045;-73
2022/05/16 03:50:30;;;;;;;9.07;4.72;;;12.70;99.90;;;;;;5027108;28;20045;-74
2022/05/16 03:52:59;;;;;;;8.52;4.00;;;12.70;99.90;;;;;;5025732;28;20492;-74
2022/05/16 03:55:26;;;;;;;8.55;4.22;;;12.70;99.90;;;;;;5020656;28;20053;-74
2022/05/16 03:57:52;;;;;;;8.30;4.10;;;12.70;99.90;;;;;;5036975;28;20091;-74
2022/05/16 04:00:19;;;;;;;7.70;3.90;;;12.70;99.90;;;;;;5006991;28;20467;-74
2022/05/16 04:02:45;;;;;;;6.70;4.35;;;12.70;99.90;;;;;;5018393;28;20062;-75
2022/05/16 04:05:15;;;;;;;7.68;3.72;;;12.70;99.90;;;;;;5005492;28;20136;-73
2022/05/16 04:07:41;;;;;;;10.70;4.00;;;12.70;99.90;;;;;;5005052;28;20046;-74
2022/05/16 04:10:08;;;;;;;15.38;4.78;;;12.70;99.90;;;;;;5020726;28;20112;-74
2022/05/16 04:12:35;;;;;;;7.82;3.35;;;12.70;99.90;;;;;;5004397;28;20054;-80
2022/05/16 04:15:02;;;;;;;6.10;4.05;;;12.70;99.90;;;;;;5014257;28;20133;-80
2022/05/16 04:17:28;;;;;;;8.43;4.20;;;12.70;99.90;;;;;;5023301;28;20120;-79
2022/05/16 04:19:53;;;;;;;9.52;3.65;;;12.70;99.90;;;;;;5023897;28;20263;-80
2022/05/16 04:22:19;;;;;;;6.50;3.70;;;12.70;99.90;;;;;;5023850;28;20053;-80
2022/05/16 04:24:45;;;;;;;6.32;3.97;;;12.70;99.90;;;;;;5005122;28;20123;-79
2022/05/16 04:27:11;;;;;;;6.47;3.40;;;12.70;99.90;;;;;;5007583;28;20119;-79
2022/05/16 04:29:37;;;;;;;9.60;3.75;;;12.70;99.90;;;;;;5007070;28;20076;-73
2022/05/16 04:32:03;;;;;;;7.30;4.30;;;12.80;99.90;;;;;;5007257;28;20103;-74
2022/05/16 04:34:29;;;;;;;6.95;3.58;;;12.80;99.90;;;;;;5006729;28;20909;-73
2022/05/16 04:36:54;;;;;;;8.55;3.72;;;12.70;99.90;;;;;;4990746;28;20068;-74
2022/05/16 04:39:20;;;;;;;7.45;3.38;;;12.70;99.90;;;;;;5006709;28;20045;-73
2022/05/16 04:44:36;;;;;;;8.90;4.43;;;12.70;99.90;;;;;;5009296;28;20396;-73
2022/05/16 04:47:06;;;;;;;6.15;3.40;;;12.70;99.90;;;;;;5020089;28;20057;-74
2022/05/16 04:49:32;;;;;;;9.45;4.10;;;12.70;99.90;;;;;;5023262;28;20037;-74
2022/05/16 04:51:58;;;;;;;8.05;3.65;;;12.60;99.90;;;;;;5006654;28;20037;-73
2022/05/16 04:54:25;;;;;;;7.35;3.40;;;12.70;99.90;;;;;;5020952;28;20045;-73
2022/05/16 04:56:52;;;;;;;7.97;3.58;;;12.70;99.90;;;;;;5006248;28;20049;-74
2022/05/16 04:59:19;;;;;;;8.82;4.00;;;12.70;99.90;;;;;;5022713;28;20077;-73
2022/05/16 05:01:46;;;;;;;9.07;3.35;;;12.70;99.90;;;;;;4989727;28;20491;-74
2022/05/16 05:04:12;;;;;;;8.93;3.65;;;12.70;99.90;;;;;;5023146;28;20045;-74
2022/05/16 05:06:39;;;;;;;9.38;3.80;;;12.70;99.90;;;;;;5022976;28;20056;-73
2022/05/16 05:09:05;;;;;;;6.68;3.38;;;12.80;99.90;;;;;;5022376;28;20057;-73
2022/05/16 05:14:34;;;;;;;6.65;3.30;;;13.00;99.90;;;;;;4999661;28;20475;-75
2022/05/16 05:17:06;;;;;;;6.05;3.65;;;13.00;99.90;;;;;;5020208;28;20042;-73
2022/05/16 05:19:39;;;;;;;6.70;3.50;;;13.10;99.90;;;;;;5020174;28;20030;-73
2022/05/16 05:22:06;;;;;;;7.93;3.75;;;13.20;99.90;;;;;;5017514;28;20387;-74
2022/05/16 05:24:32;;;;;;;7.90;3.70;;;13.30;99.90;;;;;;5000585;28;20068;-73
2022/05/16 05:26:58;;;;;;;10.02;3.97;;;13.40;99.90;;;;;;5039438;28;20041;-74
2022/05/16 05:29:24;;;;;;;6.82;3.22;;;13.50;99.90;;;;;;5003850;28;20403;-74
2022/05/16 05:31:50;;;;;;;8.15;3.65;;;13.50;99.90;;;;;;5009089;28;20135;-74
2022/05/16 05:34:20;;;;;;;6.97;3.28;;;13.50;99.90;;;;;;4988188;28;20052;-74
2022/05/16 05:36:46;;;;;;;10.55;3.80;;;13.50;99.90;;;;;;5005071;28;20045;-73
2022/05/16 05:39:16;;;;;;;9.02;3.95;;;13.60;99.90;;;;;;5019927;28;20523;-73
2022/05/16 05:41:43;;;;;;;9.75;3.97;;;13.60;99.90;;;;;;5019164;28;20168;-73
2022/05/16 05:44:09;;;;;;;8.98;3.28;;;13.60;99.90;;;;;;5005789;28;20045;-73
2022/05/16 05:46:37;;;;;;;8.60;3.42;;;13.60;99.90;;;;;;5018528;28;20088;-73
2022/05/16 05:49:04;;;;;;;7.10;3.30;;;13.70;99.90;;;;;;5005216;28;20496;-75
2022/05/16 05:51:30;;;;;;;9.55;3.70;;;13.90;99.90;;;;;;5021312;28;20042;-75
2022/05/16 05:53:56;;;;;;;7.82;3.60;;;14.00;99.90;;;;;;4985659;28;20116;-76
2022/05/16 05:56:22;;;;;;;11.23;3.97;;;14.10;99.90;;;;;;5021812;28;20442;-73
2022/05/16 05:58:47;;;;;;;6.85;3.47;;;14.20;99.90;;;;;;4998673;28;20590;-74
2022/05/16 06:01:16;;;;;;;7.40;3.30;;;14.30;99.90;;;;;;5000302;28;20045;-73
2022/05/16 06:03:42;;;;;;;6.80;3.20;;;14.50;99.90;;;;;;5025588;28;20049;-74
2022/05/16 06:06:08;;;;;;;9.23;3.47;;;14.60;99.90;;;;;;5005719;28;20045;-74
2022/05/16 06:08:34;;;;;;;10.13;3.38;;;14.70;99.90;;;;;;5008003;28;20042;-74
2022/05/16 06:11:00;;;;;;;7.88;3.15;;;14.80;99.90;;;;;;5007005;28;20522;-74
2022/05/16 06:13:27;;;;;;;8.43;3.22;;;14.80;99.90;;;;;;5007609;28;20241;-74
2022/05/16 06:15:53;;;;;;;7.47;3.10;;;14.90;99.90;;;;;;5006695;28;20385;-74
2022/05/16 06:18:18;;;;;;;8.98;3.65;;;14.90;99.90;;;;;;5008208;28;20048;-74
2022/05/16 06:20:44;;;;;;;6.72;3.20;;;15.00;99.90;;;;;;5004771;28;20053;-75
2022/05/16 06:23:10;;;;;;;8.68;3.55;;;15.10;99.90;;;;;;5007654;28;20044;-75
2022/05/16 06:25:39;;;;;;;8.20;3.20;;;15.30;99.90;;;;;;5007711;28;20046;-73
2022/05/16 06:28:14;;;;;;;9.80;3.70;;;15.40;99.90;;;;;;5006346;28;20379;-75
2022/05/16 06:30:45;;;;;;;9.00;3.58;;;15.50;99.90;;;;;;5023215;28;20055;-75
2022/05/16 06:33:12;;;;;;;8.85;3.20;;;15.60;99.90;;;;;;5040667;28;20458;-75
2022/05/16 06:35:39;;;;;;;7.80;3.17;;;15.60;99.90;;;;;;5024902;28;20515;-75
2022/05/16 06:38:12;;;;;;;10.95;3.83;;;15.70;99.90;;;;;;5008396;28;20432;-75
2022/05/16 06:40:40;;;;;;;6.78;3.22;;;15.80;99.90;;;;;;5023872;28;20546;-74
2022/05/16 06:43:07;;;;;;;6.70;3.22;;;15.90;99.90;;;;;;5006829;28;20041;-75
2022/05/16 06:45:32;;;;;;;9.45;2.92;;;16.10;99.90;;;;;;5003262;28;20045;-74
2022/05/16 06:47:58;;;;;;;6.43;3.28;;;16.10;99.90;;;;;;5008109;28;20052;-75
2022/05/16 06:50:24;;;;;;;8.15;3.30;;;16.20;99.90;;;;;;5008646;28;20148;-75
2022/05/16 06:52:50;;;;;;;8.95;3.67;;;16.30;99.90;;;;;;5016939;28;20749;-74
2022/05/16 06:55:16;;;;;;;7.70;3.85;;;16.40;99.90;;;;;;5006110;28;20037;-74
2022/05/16 06:57:42;;;;;;;6.43;2.97;;;16.50;99.90;;;;;;4988239;28;20045;-76
2022/05/16 07:00:09;;;;;;;7.00;3.33;;;16.60;99.90;;;;;;5024243;28;20193;-75
2022/05/16 07:02:34;;;;;;;7.70;2.97;;;16.60;99.90;;;;;;5021795;28;20041;-75
2022/05/16 07:05:01;;;;;;;12.23;3.72;;;16.70;99.90;;;;;;4991390;28;20114;-74
2022/05/16 07:07:28;;;;;;;9.63;3.50;;;16.80;99.90;;;;;;5005524;28;20482;-74
2022/05/16 07:09:56;;;;;;;7.53;3.30;;;17.00;99.90;;;;;;5006369;28;20418;-75
2022/05/16 07:12:22;;;;;;;7.63;3.30;;;17.20;99.90;;;;;;5006356;28;20068;-75
2022/05/16 07:14:48;;;;;;;6.40;3.50;;;17.30;99.90;;;;;;5023884;28;20076;-75
2022/05/16 07:17:14;;;;;;;8.95;3.60;;;17.40;99.90;;;;;;5007610;28;20068;-75
2022/05/16 07:19:40;;;;;;;8.23;3.25;;;17.50;99.90;;;;;;5007461;28;20056;-75
2022/05/16 07:22:11;;;;;;;7.28;3.35;;;17.70;99.90;;;;;;5024018;28;20046;-75
2022/05/16 07:24:40;;;;;;;8.02;3.20;;;17.90;99.90;;;;;;5023759;28;20061;-73
2022/05/16 07:29:50;;;;;;;8.32;3.38;;;18.10;99.90;;;;;;5023369;28;20041;-75
2022/05/16 07:32:16;;;;;;;9.55;3.22;;;18.30;99.90;;;;;;4990302;28;20037;-73
2022/05/16 07:34:42;;;;;;;9.15;3.38;;;18.30;99.50;;;;;;5007641;28;20045;-74
2022/05/16 07:37:09;;;;;;;9.25;2.95;;;18.50;99.30;;;;;;5007411;28;20431;-75
2022/05/16 07:39:35;;;;;;;7.97;2.97;;;18.70;99.30;;;;;;5007559;28;20121;-74
2022/05/16 07:42:03;;;;;;;6.93;2.70;;;18.80;98.90;;;;;;5007759;28;20045;-73
2022/05/16 07:44:29;;;;;;;7.28;2.95;;;18.90;97.90;;;;;;5023668;28;20038;-74
2022/05/16 07:46:55;;;;;;;7.25;2.78;;;19.10;98.00;;;;;;4990347;28;20052;-74
2022/05/16 07:49:22;;;;;;;9.25;3.05;;;19.20;97.60;;;;;;5007275;28;20057;-73
2022/05/16 07:51:48;;;;;;;7.18;2.70;;;19.30;97.10;;;;;;5020101;28;20132;-74
2022/05/16 07:54:14;;;;;;;7.43;2.53;;;19.50;97.40;;;;;;5006559;28;20124;-74
2022/05/16 07:56:40;;;;;;;7.65;3.03;;;19.70;96.90;;;;;;5016810;28;20041;-74
2022/05/16 07:59:06;;;;;;;8.88;2.97;;;19.90;96.30;;;;;;5023626;28;20100;-74
2022/05/16 08:01:32;;;;;;;9.60;3.20;;;20.10;95.20;;;;;;5004623;28;20108;-73
2022/05/16 08:03:58;;;;;;;7.65;2.58;;;20.20;93.20;;;;;;5007245;28;20039;-75
2022/05/16 08:06:27;;;;;;;10.27;2.55;;;20.40;93.70;;;;;;4991056;28;20045;-74
2022/05/16 08:11:39;;;;;;;10.90;3.05;;;20.70;93.30;;;;;;5022851;28;20048;-75
2022/05/16 08:14:04;;;;;;;8.70;2.70;;;20.90;93.20;;;;;;5007217;28;20480;-74
2022/05/16 08:16:30;;;;;;;7.20;3.03;;;21.10;92.20;;;;;;5005553;28;20038;-75
2022/05/16 08:18:56;;;;;;;6.60;2.72;;;21.20;92.00;;;;;;4989869;28;20055;-75
2022/05/16 08:21:22;;;;;;;9.18;2.40;;;21.30;91.70;;;;;;5019278;28;20041;-75
2022/05/16 08:23:48;;;;;;;7.25;2.67;;;21.50;91.40;;;;;;5022982;28;20053;-75
2022/05/16 08:26:16;;;;;;;7.10;2.90;;;21.70;91.30;;;;;;4987305;28;20351;-76
2022/05/16 08:28:42;;;;;;;8.02;3.17;;;21.80;90.90;;;;;;5005470;28;20041;-76
2022/05/16 08:31:08;;;;;;;7.00;2.42;;;22.00;90.40;;;;;;5007824;28;20041;-76
2022/05/16 08:33:37;;;;;;;7.03;2.40;;;22.10;88.80;;;;;;4990726;28;20041;-75
2022/05/16 08:41:59;;;;;;;6.82;2.30;;;22.60;85.40;;;;;;5009097;28;20107;-75
2022/05/16 08:44:35;;;;;;;7.80;3.00;;;22.70;81.30;;;;;;5002568;28;20310;-73
2022/05/16 08:47:16;;;;;;;7.15;2.65;;;22.80;80.10;;;;;;5004653;28;20081;-74
2022/05/16 08:49:51;;;;;;;6.80;2.65;;;22.90;77.60;;;;;;5005650;28;20045;-75
2022/05/16 08:52:20;;;;;;;8.00;2.70;;;22.90;77.50;;;;;;5020110;28;20446;-75
2022/05/16 08:55:01;;;;;;;7.87;3.00;;;22.90;75.50;;;;;;5012091;28;20522;-75
2022/05/16 08:57:36;;;;;;;10.15;2.80;;;22.90;75.90;;;;;;5016276;28;20662;-75
2022/05/16 09:00:15;;;;;;;8.43;3.28;;;23.00;77.10;;;;;;5017870;28;20060;-74
2022/05/16 09:02:43;;;;;;;8.90;3.20;;;23.10;74.60;;;;;;5022607;28;20048;-74
2022/05/16 09:05:21;;;;;;;7.82;2.70;;;23.30;74.10;;;;;;5022390;28;20045;-75
2022/05/16 09:07:58;;;;;;;7.82;2.78;;;23.40;72.90;;;;;;5022330;28;20121;-76
2022/05/16 09:10:30;;;;;;;9.00;3.03;;;23.60;72.70;;;;;;5021309;28;20129;-75
2022/05/16 09:13:19;;;;;;;8.80;2.80;;;23.90;73.40;;;;;;5005914;28;20057;-75
2022/05/16 09:16:13;;;;;;;8.82;2.65;;;24.00;69.80;;;;;;5015548;28;20048;-74
2022/05/16 09:18:42;;;;;;;8.05;2.95;;;24.20;68.70;;;;;;5002626;28;20049;-74
2022/05/16 09:21:19;;;;;;;8.53;2.83;;;24.20;67.40;;;;;;5004812;28;20061;-73
2022/05/16 09:24:05;;;;;;;7.70;2.50;;;24.20;67.20;;;;;;5022437;28;20295;-77
2022/05/16 09:26:39;;;;;;;7.97;2.97;;;24.20;67.00;;;;;;5004992;28;20077;-75
2022/05/16 09:29:25;;;;;;;7.28;2.78;;;24.40;65.90;;;;;;5006074;28;20045;-76
2022/05/16 09:32:08;;;;;;;8.38;2.60;;;24.50;65.00;;;;;;5022462;28;20049;-76
2022/05/16 09:34:34;;;;;;;6.88;2.30;;;24.70;64.50;;;;;;5025704;28;20042;-76
2022/05/16 09:37:00;;;;;;;7.65;2.55;;;24.70;63.50;;;;;;5009773;28;20045;-75
2022/05/16 09:39:35;;;;;;;10.93;3.00;;;24.60;63.50;;;;;;5026374;28;20184;-76
2022/05/16 09:42:19;;;;;;;10.15;3.47;;;24.50;66.00;;;;;;5040836;28;20049;-75
2022/05/16 09:45:02;;;;;;;9.20;3.42;;;24.40;65.70;;;;;;5026434;28;20464;-76
2022/05/16 09:47:28;;;;;;;8.13;2.95;;;24.30;66.60;;;;;;5022339;28;20056;-75
2022/05/16 09:50:03;;;;;;;7.00;2.67;;;24.40;67.80;;;;;;5010159;28;20495;-75
2022/05/16 09:52:32;;;;;;;8.73;3.05;;;24.60;67.90;;;;;;5009047;28;20088;-76
2022/05/16 09:55:07;;;;;;;8.13;2.95;;;24.80;66.30;;;;;;5022514;28;20393;-76
2022/05/16 09:58:01;;;;;;;8.77;3.30;;;25.00;64.90;;;;;;5006530;28;20045;-76
2022/05/16 10:00:32;;;;;;;10.10;3.00;;;25.30;63.00;;;;;;5006255;28;20365;-75
2022/05/16 10:03:24;;;;;;;8.32;3.35;;;25.40;60.50;;;;;;5009136;28;20085;-76
2022/05/16 10:05:52;;;;;;;10.48;3.47;;;25.40;60.30;;;;;;5009614;28;20045;-76
2022/05/16 10:08:27;;;;;;;7.15;2.65;;;25.40;61.30;;;;;;5025605;28;20053;-76
2022/05/16 10:10:55;;;;;;;10.63;3.70;;;25.40;61.60;;;;;;5021296;28;20065;-76
2022/05/16 10:13:22;;;;;;;10.43;3.40;;;25.50;61.00;;;;;;5004805;28;20045;-74
2022/05/16 10:15:52;;;;;;;6.38;2.80;;;25.60;61.00;;;;;;5008640;28;20382;-76
2022/05/16 10:18:20;;;;;;;10.15;3.00;;;25.80;59.70;;;;;;5025425;28;20138;-76
2022/05/16 10:20:53;;;;;;;10.43;3.00;;;25.90;58.70;;;;;;5020617;28;21132;-75
2022/05/16 10:23:38;;;;;;;8.63;3.00;;;25.90;58.70;;;;;;4987529;28;20304;-74
2022/05/16 10:26:33;;;;;;;9.63;2.85;;;26.00;59.40;;;;;;5011459;28;20512;-75
2022/05/16 10:29:06;;;;;;;7.07;2.83;;;26.00;58.90;;;;;;5016188;28;20045;-75
2022/05/16 10:35:08;;;;;;;11.52;3.30;;;26.20;58.60;;;;;;5017948;28;20062;-76
2022/05/16 10:37:43;;;;;;;8.63;2.93;;;26.00;56.80;;;;;;5034102;28;20054;-75
2022/05/16 10:40:15;;;;;;;7.07;3.25;;;25.90;57.40;;;;;;5006548;28;20382;-76
2022/05/16 10:42:46;;;;;;;9.07;3.03;;;25.80;58.30;;;;;;5006169;28;20050;-75
2022/05/16 10:45:18;;;;;;;11.98;3.20;;;25.70;60.90;;;;;;5028974;28;20045;-75
2022/05/16 10:48:07;;;;;;;7.68;2.53;;;25.50;61.40;;;;;;5013432;28;20101;-73
2022/05/16 10:50:46;;;;;;;7.47;2.72;;;25.30;61.60;;;;;;5012316;28;20048;-75
2022/05/16 10:53:35;;;;;;;11.07;2.97;;;25.10;64.20;;;;;;4996378;28;20504;-74
2022/05/16 10:56:17;;;;;;;8.38;2.42;;;24.90;64.00;;;;;;5008134;28;20045;-76
2022/05/16 10:59:07;;;;;;;8.15;2.90;;;24.80;63.70;;;;;;5007571;28;20085;-76
2022/05/16 11:01:45;;;;;;;11.07;3.38;;;24.60;64.50;;;;;;5005343;28;20377;-75
2022/05/16 11:04:52;;;;;;;9.13;3.00;;;24.60;65.80;;;;;;5017972;28;20046;-74
2022/05/16 11:07:31;;;;;;;9.02;2.92;;;24.40;67.00;;;;;;4987461;28;20385;-75
2022/05/16 11:10:01;;;;;;;12.13;3.40;;;24.30;71.50;;;;;;5005126;28;20060;-74
2022/05/16 11:12:39;;;;;;;;;;;24.20;75.50;;;;;;4989627;28;20104;-75
2022/05/16 11:15:30;;;;;;;9.25;3.38;;;24.00;80.90;;;;;;5004989;28;19932;-76
2022/05/16 11:18:21;;;;;;;10.38;4.30;;;23.80;87.30;;;;;;5014362;28;20056;-77
2022/05/16 11:21:01;;;;;;;13.18;4.50;;;23.60;91.60;;;;;;5017213;28;20054;-76
2022/05/16 11:23:47;;;;;;;9.63;4.88;;;23.40;95.30;;;;;;5021931;28;20050;-75
2022/05/16 11:26:22;;;;;;;12.82;4.40;;;23.20;98.30;;;;;;5018261;28;20175;-73
2022/05/16 11:29:17;;;;;;;8.60;5.07;;;23.00;99.30;;;;;;5004052;28;20084;-74
2022/05/16 11:31:58;;;;;;;13.98;5.60;;;22.90;99.90;;;;;;5017057;28;20045;-75
2022/05/16 11:34:45;;;;;;;10.57;4.43;;;22.70;99.90;;;;;;5023478;28;20045;-75
2022/05/16 11:37:15;;;;;;;13.15;5.30;;;22.60;99.90;;;;;;5024971;28;20550;-75
2022/05/16 11:40:00;;;;;;;13.02;6.00;;;22.60;99.90;;;;;;5008994;28;20053;-75
2022/05/16 11:42:53;;;;;;;12.73;5.90;;;22.70;99.90;;;;;;5025062;28;20049;-76
2022/05/16 11:45:37;;;;;;;10.98;4.97;;;22.70;99.90;;;;;;5008898;28;20056;-75
2022/05/16 11:48:24;;;;;;;9.80;4.97;;;22.80;99.90;;;;;;5008923;28;20046;-76
2022/05/16 11:51:21;;;;;;;13.88;5.43;;;22.80;99.90;;;;;;5024832;28;20132;-76
2022/05/16 11:53:50;;;;;;;11.48;5.07;;;22.90;99.90;;;;;;4977947;28;20057;-76
2022/05/16 12:02:51;;;;;;;10.43;5.10;;;23.10;99.90;;;;;;5015421;28;20053;-74
2022/05/16 12:05:26;;;;;;;10.82;4.32;;;23.10;99.90;;;;;;5020416;28;20451;-75
2022/05/16 12:08:20;;;;;;;9.73;5.40;;;23.20;99.90;;;;;;5020410;28;20089;-75
2022/05/16 12:11:11;;;;;;;14.30;4.72;;;23.30;99.90;;;;;;5005627;28;20128;-74
2022/05/16 12:14:00;;;;;;;10.32;4.88;;;23.30;99.90;;;;;;5007863;28;20064;-74
2022/05/16 12:16:31;;;;;;;12.50;5.38;;;23.20;99.90;;;;;;5024308;28;20041;-74
2022/05/16 12:19:29;;;;;;;9.95;4.15;;;23.10;99.90;;;;;;5021372;28;20072;-74
2022/05/16 12:22:07;;;;;;;8.77;3.55;;;23.00;99.90;;;;;;5002661;28;20049;-75
2022/05/16 12:24:58;;;;;;;6.85;3.33;;;23.00;99.90;;;;;;5008552;28;20973;-75
2022/05/16 12:27:38;;;;;;;17.02;3.97;;;23.00;99.90;;;;;;5032103;28;20049;-75
2022/05/16 12:30:34;;;;;;;6.93;3.70;;;23.00;99.90;;;;;;5017476;28;20170;-75
2022/05/16 12:33:00;;;;;;;11.07;3.47;;;23.10;99.90;;;;;;5042920;28;20044;-75
2022/05/16 12:35:40;;;;;;;9.90;3.80;;;23.20;99.90;;;;;;5023588;28;20049;-75
2022/05/16 12:38:08;;;;;;;8.95;4.30;;;23.30;99.90;;;;;;5037982;28;20041;-75
2022/05/16 12:40:46;;;;;;;9.63;3.80;;;23.50;99.90;;;;;;5039106;28;20120;-75
2022/05/16 12:44:22;;;;;;;9.80;4.47;;;23.80;99.90;;;;;;5007447;28;20120;-75
2022/05/16 12:47:05;;;;;;;9.52;3.30;;;24.10;99.90;;;;;;4947488;28;20063;-74
2022/05/16 12:49:56;;;;;;;8.80;3.95;;;24.30;99.90;;;;;;4963170;28;20145;-74
2022/05/16 12:52:46;;;;;;;10.77;4.20;;;24.40;99.70;;;;;;5007475;28;20053;-74
2022/05/16 12:55:45;;;;;;;5.72;3.45;;;24.50;96.60;;;;;;4997449;28;20065;-75
2022/05/16 12:58:16;;;;;;;9.40;3.35;;;24.40;95.10;;;;;;5021123;28;20079;-74
2022/05/16 13:00:51;;;;;;;8.00;3.90;;;24.50;95.50;;;;;;5023653;28;20148;-74
2022/05/16 13:03:44;;;;;;;9.20;4.38;;;24.70;96.90;;;;;;5005473;28;20477;-74
2022/05/16 13:06:38;;;;;;;9.13;3.30;;;24.70;94.30;;;;;;4992780;28;20073;-74
2022/05/16 13:09:11;;;;;;;8.45;3.45;;;24.70;94.20;;;;;;5025134;28;20476;-74
2022/05/16 13:11:39;;;;;;;6.85;3.90;;;24.60;95.10;;;;;;5010201;28;20049;-74
2022/05/16 13:14:30;;;;;;;6.13;3.28;;;24.50;94.20;;;;;;5027129;28;20041;-75
2022/05/16 13:17:02;;;;;;;6.53;3.47;;;24.40;93.50;;;;;;5027188;28;20041;-75
2022/05/16 13:19:31;;;;;;;6.47;4.13;;;24.40;94.60;;;;;;5027470;28;20057;-76
2022/05/16 13:22:18;;;;;;;7.35;3.58;;;24.20;95.70;;;;;;5005739;28;20835;-76
2022/05/16 13:24:44;;;;;;;8.80;4.53;;;24.20;96.50;;;;;;5039243;28;20053;-76
2022/05/16 13:30:05;;;;;;;8.15;4.55;;;24.10;95.80;;;;;;5025806;28;20381;-76
2022/05/16 13:32:31;;;;;;;8.18;4.93;;;24.10;95.60;;;;;;5006525;28;20049;-76
2022/05/16 13:35:24;;;;;;;7.43;5.00;;;24.20;95.70;;;;;;5024388;28;20081;-76
2022/05/16 13:37:52;;;;;;;8.45;4.97;;;24.20;96.00;;;;;;5006355;28;20062;-76
2022/05/16 13:40:38;;;;;;;9.43;6.10;;;24.30;97.60;;;;;;5021792;28;20126;-75
2022/05/16 13:43:22;;;;;;;10.75;5.35;;;24.40;96.80;;;;;;5025197;28;20399;-76
2022/05/16 13:46:02;;;;;;;9.95;4.72;;;24.40;96.90;;;;;;5009426;28;20484;-75
2022/05/16 13:48:28;;;;;;;;;;;24.50;97.80;;;;;;5023618;28;20403;-76